Pagrindinis puslapis
METAR-TAF:

METAR-TAF

Oro uostai :

Tumbes, Peru

platuma: 03-33S, ilguma: 080-24W, Aukštis: 25 m

Dabartinis oras

Ataskaita buvo paskelbta 24 minutes, ne 22:00 UTC
Vėjas 8 kt iš Šiaurės/Šiaurės Vakarų
Temperatūra 29°C
Drėgmė 70%
Slėgis 1010 hPa
Matomumas 10 km arba daugiau
Mažai debesys ne aukštis 1200 ft

METAR: SPME 272200Z 34008KT 9999 FEW012 29/23 Q1010 RMK BIRD HAZARD RWY 32/14 TX 30.9 PP000

Laikas: 17:24 (22:24 UTC)

Prognozė

Ataskaita buvo paskelbta 5 valandos ir 24 minutes, ne 17:00 UTC
Prognozė galioja nuo 27 metu 18 UTC su 28 metu 18 UTC
Vėjas 12 kt iš Šiaurės
Matomumas 10 km arba daugiau
Išsisklaidę debesys ne aukštis 800 ft
Su prošvaistėmis ne aukštis 1700 ft
Laikinai
nuo 27 metu 18 UTC su 27 metu 20 UTC
Su prošvaistėmis ne aukštis 800 ft
Išsisklaidę debesys ne aukštis 2000 ft
Tapsmas
nuo 27 metu 23 UTC su 28 metu 00 UTC
Vėjas 5 kt iš Vakarų
Su prošvaistėmis ne aukštis 1300 ft

TAF: SPME 271700Z 2718/2818 35012KT 9999 SCT008 BKN017 TX30/2719Z TN24/2811Z TEMPO 2718/2720 BKN008 SCT020 BECMG 2723/2800 26005KT BKN013

Orai ataskaitas ir orų prognozės (METAR, TAF).

turimą stotys yra geltonos ir raudonos taškus žemėlapyje.

Perkelti pele per norėdami pamatyti stoties vardą.

Tada spustelėkite, norėdami matyti oro stebėjimo ir prognozės.

Norėdami pakeisti žemėlapį: spustelėkite ant žalios mygtukų su juodo kryžiaus žemyn,; žalią mygtuką su brūkšneliu, jei norite nutolinti; arba žalių rodyklių gretimoms žemėlapius.


METAR-TAF: